createdAt,value
2022-12-31T00:01:37.625Z,8.69
2022-12-31T00:04:05.600Z,8.71
2022-12-31T00:06:35.094Z,8.74
2022-12-31T00:09:06.589Z,8.77
2022-12-31T00:11:35.262Z,8.80
2022-12-31T00:14:03.429Z,8.85
2022-12-31T00:16:33.372Z,8.86
2022-12-31T00:19:02.036Z,8.88
2022-12-31T00:21:31.649Z,8.90
2022-12-31T00:23:59.228Z,8.91
2022-12-31T00:26:30.368Z,8.93
2022-12-31T00:29:00.182Z,8.96
2022-12-31T00:31:29.690Z,8.96
2022-12-31T00:33:57.685Z,8.95
2022-12-31T00:36:27.399Z,8.92
2022-12-31T00:38:56.709Z,8.91
2022-12-31T00:41:25.278Z,8.92
2022-12-31T00:43:54.514Z,8.94
2022-12-31T00:46:22.681Z,8.97
2022-12-31T00:48:50.407Z,8.98
2022-12-31T00:51:20.110Z,9.04
2022-12-31T00:53:47.633Z,9.08
2022-12-31T00:56:17.005Z,9.13
2022-12-31T00:58:45.239Z,9.16
2022-12-31T01:01:18.187Z,9.21
2022-12-31T01:03:46.723Z,9.23
2022-12-31T01:06:14.651Z,9.22
2022-12-31T01:08:42.337Z,9.24
2022-12-31T01:11:22.513Z,9.25
2022-12-31T01:13:52.842Z,9.23
2022-12-31T01:16:24.220Z,9.24
2022-12-31T01:18:52.035Z,9.25
2022-12-31T01:21:20.227Z,9.29
2022-12-31T01:23:47.929Z,9.31
2022-12-31T01:26:18.031Z,9.31
2022-12-31T01:28:46.276Z,9.32
2022-12-31T01:31:16.625Z,9.33
2022-12-31T01:33:46.475Z,9.34
2022-12-31T01:36:21.727Z,9.34
2022-12-31T01:38:53.600Z,9.32
2022-12-31T01:41:23.425Z,9.31
2022-12-31T01:43:54.280Z,9.29
2022-12-31T01:46:29.410Z,9.29
2022-12-31T01:49:03.125Z,9.29
2022-12-31T01:51:34.365Z,9.30
2022-12-31T01:54:05.957Z,9.32
2022-12-31T01:56:35.341Z,9.31
2022-12-31T01:59:07.656Z,9.35
2022-12-31T02:01:38.425Z,9.35
2022-12-31T02:04:10.596Z,9.32
2022-12-31T02:06:42.353Z,9.35
2022-12-31T02:09:10.594Z,9.41
2022-12-31T02:11:38.361Z,9.46
2022-12-31T02:14:10.394Z,9.54
2022-12-31T02:16:47.068Z,9.58
2022-12-31T02:19:52.012Z,9.60
2022-12-31T02:22:37.835Z,9.62
2022-12-31T02:25:26.476Z,9.64
2022-12-31T02:28:07.523Z,9.65
2022-12-31T02:30:38.169Z,9.68
2022-12-31T02:33:14.125Z,9.66
2022-12-31T02:35:49.720Z,9.64
2022-12-31T02:38:22.027Z,9.63
2022-12-31T02:40:50.039Z,9.61
2022-12-31T02:43:17.684Z,9.63
2022-12-31T02:45:51.416Z,9.64
2022-12-31T02:48:30.346Z,9.67
2022-12-31T02:51:07.879Z,9.73
2022-12-31T02:54:01.242Z,9.81
2022-12-31T02:56:35.526Z,9.82
2022-12-31T02:59:25.175Z,9.81
2022-12-31T03:02:19.380Z,9.81
2022-12-31T03:04:52.286Z,9.80
2022-12-31T03:07:22.338Z,9.83
2022-12-31T03:09:50.720Z,9.84
2022-12-31T03:12:38.985Z,9.87
2022-12-31T03:15:19.781Z,9.91
2022-12-31T03:17:59.390Z,9.94
2022-12-31T03:20:47.770Z,9.99
2022-12-31T03:23:19.014Z,10.04
2022-12-31T03:25:46.137Z,10.08
2022-12-31T03:28:15.562Z,10.18
2022-12-31T03:30:44.929Z,10.24
2022-12-31T03:33:16.243Z,10.32
2022-12-31T03:35:46.551Z,10.39
2022-12-31T03:38:15.282Z,10.40
2022-12-31T03:40:44.307Z,10.46
2022-12-31T03:43:12.219Z,10.51
2022-12-31T03:45:40.376Z,10.54
2022-12-31T03:48:10.522Z,10.58
2022-12-31T03:50:39.436Z,10.57
2022-12-31T03:53:07.410Z,10.57
2022-12-31T03:55:34.955Z,10.59
2022-12-31T03:58:02.578Z,10.54
2022-12-31T04:00:30.260Z,10.51
2022-12-31T04:02:57.994Z,10.46
2022-12-31T04:05:25.925Z,10.44
2022-12-31T04:07:55.844Z,10.43
2022-12-31T04:10:23.580Z,10.42
2022-12-31T04:12:51.125Z,10.38
2022-12-31T04:15:20.268Z,10.40
2022-12-31T04:17:48.841Z,10.39
2022-12-31T04:20:17.191Z,10.38
2022-12-31T04:22:44.929Z,10.37
2022-12-31T04:25:13.792Z,10.38
2022-12-31T04:27:43.544Z,10.37
2022-12-31T04:30:13.450Z,10.39
2022-12-31T04:32:41.336Z,10.42
2022-12-31T04:35:10.285Z,10.44
2022-12-31T04:37:37.910Z,10.56
2022-12-31T04:40:07.071Z,10.62
2022-12-31T04:42:36.542Z,10.65
2022-12-31T04:45:05.322Z,10.68
2022-12-31T04:47:32.992Z,10.66
2022-12-31T04:50:00.537Z,10.66
2022-12-31T04:52:28.351Z,10.65
2022-12-31T04:54:55.933Z,10.67
2022-12-31T04:57:23.459Z,10.71
2022-12-31T04:59:52.298Z,10.72
2022-12-31T05:02:19.941Z,10.74
2022-12-31T05:04:47.618Z,10.73
2022-12-31T05:07:15.229Z,10.72
2022-12-31T05:09:42.858Z,10.70
2022-12-31T05:12:10.356Z,10.66
2022-12-31T05:14:37.872Z,10.64
2022-12-31T05:17:06.879Z,10.64
2022-12-31T05:19:34.524Z,10.63
2022-12-31T05:22:19.561Z,10.61
2022-12-31T05:24:47.057Z,10.60
2022-12-31T05:27:15.461Z,10.60
2022-12-31T05:29:42.977Z,10.61
2022-12-31T05:32:11.796Z,10.60
2022-12-31T05:34:39.320Z,10.59
2022-12-31T05:37:06.959Z,10.66
2022-12-31T05:39:34.560Z,10.76
2022-12-31T05:42:02.201Z,10.90
2022-12-31T05:44:29.749Z,11.02
2022-12-31T05:46:57.302Z,11.19
2022-12-31T05:49:26.209Z,11.31
2022-12-31T05:51:53.745Z,11.39
2022-12-31T05:54:21.608Z,11.49
2022-12-31T05:56:49.188Z,11.60
2022-12-31T05:59:16.929Z,11.67
2022-12-31T06:01:44.479Z,11.75
2022-12-31T06:04:12.064Z,11.85
2022-12-31T06:06:41.417Z,11.94
2022-12-31T06:09:08.959Z,11.99
2022-12-31T06:11:36.628Z,12.05
2022-12-31T06:14:04.472Z,12.12
2022-12-31T06:16:32.089Z,12.16
2022-12-31T06:19:01.601Z,12.23
2022-12-31T06:21:30.544Z,12.29
2022-12-31T06:23:59.596Z,12.36
2022-12-31T06:26:27.655Z,12.41
2022-12-31T06:28:55.456Z,12.47
2022-12-31T06:31:23.077Z,12.54
2022-12-31T06:33:50.606Z,12.59
2022-12-31T06:36:19.106Z,12.70
2022-12-31T06:38:46.697Z,12.73
2022-12-31T06:41:18.304Z,12.81
2022-12-31T06:43:46.461Z,12.87
2022-12-31T06:46:17.712Z,12.97
2022-12-31T06:48:46.077Z,13.02
2022-12-31T06:51:17.405Z,13.06
2022-12-31T06:53:45.448Z,13.10
2022-12-31T06:56:18.563Z,13.15
2022-12-31T06:58:47.084Z,13.18
2022-12-31T07:01:34.378Z,13.20
2022-12-31T07:04:09.587Z,13.18
2022-12-31T07:06:44.083Z,13.21
2022-12-31T07:09:19.831Z,13.20
2022-12-31T07:11:58.053Z,13.17
2022-12-31T07:14:33.117Z,13.16
2022-12-31T07:17:07.870Z,13.14
2022-12-31T07:19:48.216Z,13.10
2022-12-31T07:22:20.580Z,13.04
2022-12-31T07:24:48.794Z,13.01
2022-12-31T07:27:35.709Z,12.99
2022-12-31T07:30:07.316Z,12.97
2022-12-31T07:32:50.537Z,12.94
2022-12-31T07:35:32.889Z,12.94
2022-12-31T07:38:13.953Z,12.96
2022-12-31T07:40:57.734Z,12.99
2022-12-31T07:43:34.042Z,13.05
2022-12-31T07:46:13.493Z,13.14
2022-12-31T07:48:41.513Z,13.19
2022-12-31T07:51:11.175Z,13.23
2022-12-31T07:53:40.318Z,13.24
2022-12-31T07:56:10.702Z,13.26
2022-12-31T07:58:56.737Z,13.28
2022-12-31T08:01:34.277Z,13.27
2022-12-31T08:04:07.151Z,13.25
2022-12-31T08:06:42.368Z,13.24
2022-12-31T08:09:31.565Z,13.24
2022-12-31T08:12:00.742Z,13.26
2022-12-31T08:14:30.811Z,13.30
2022-12-31T08:16:58.953Z,13.36
2022-12-31T08:19:30.540Z,13.45
2022-12-31T08:22:21.883Z,13.54
2022-12-31T08:25:00.182Z,13.65
2022-12-31T08:27:36.772Z,13.75
2022-12-31T08:30:08.942Z,13.84
2022-12-31T08:32:43.933Z,13.92
2022-12-31T08:35:29.162Z,13.99
2022-12-31T08:38:07.362Z,14.13
2022-12-31T08:40:47.030Z,14.21
2022-12-31T08:43:33.966Z,14.26
2022-12-31T08:46:04.421Z,14.33
2022-12-31T08:48:38.456Z,14.41
2022-12-31T08:51:06.885Z,14.45
2022-12-31T08:53:35.123Z,14.48
2022-12-31T08:56:08.656Z,14.50
2022-12-31T08:58:47.520Z,14.52
2022-12-31T09:01:22.191Z,14.54
2022-12-31T09:04:07.023Z,14.62
2022-12-31T09:06:39.063Z,14.67
2022-12-31T09:09:17.296Z,14.71
2022-12-31T09:11:55.462Z,14.78
2022-12-31T09:14:41.661Z,14.84
2022-12-31T09:17:28.266Z,14.91
2022-12-31T09:19:56.549Z,14.94
2022-12-31T09:22:24.645Z,14.96
2022-12-31T09:24:52.699Z,15.00
2022-12-31T09:27:28.302Z,15.08
2022-12-31T09:30:03.627Z,15.10
2022-12-31T09:32:42.998Z,15.10
2022-12-31T09:35:20.230Z,15.12
2022-12-31T09:37:50.127Z,15.10
2022-12-31T09:40:47.395Z,15.10
2022-12-31T09:43:51.608Z,15.10
2022-12-31T09:46:58.285Z,15.09
2022-12-31T09:50:00.820Z,15.06
2022-12-31T09:52:38.161Z,15.02
2022-12-31T09:55:31.821Z,15.00
2022-12-31T09:58:13.637Z,14.96
2022-12-31T10:00:46.670Z,14.90
2022-12-31T10:03:30.561Z,14.87
2022-12-31T10:06:15.556Z,14.83
2022-12-31T10:09:01.466Z,14.79
2022-12-31T10:11:53.190Z,14.76
2022-12-31T10:14:36.153Z,14.73
2022-12-31T10:17:19.602Z,14.71
2022-12-31T10:20:02.955Z,14.72
2022-12-31T10:22:45.125Z,14.72
2022-12-31T10:25:38.610Z,14.75
2022-12-31T10:28:19.217Z,14.78
2022-12-31T10:30:53.968Z,14.85
2022-12-31T10:33:33.962Z,14.91
2022-12-31T10:36:09.956Z,14.99
2022-12-31T10:38:55.413Z,15.06
2022-12-31T10:41:55.468Z,15.12
2022-12-31T10:44:46.290Z,15.18
2022-12-31T10:47:43.287Z,15.25
2022-12-31T10:50:34.650Z,15.27
2022-12-31T10:53:25.680Z,15.31
2022-12-31T10:56:50.419Z,15.34
2022-12-31T10:59:59.308Z,15.41
2022-12-31T11:03:14.784Z,15.46
2022-12-31T11:06:07.096Z,15.51
2022-12-31T11:08:55.997Z,15.56
2022-12-31T11:11:33.618Z,15.59
2022-12-31T11:14:32.448Z,15.62
2022-12-31T11:17:21.531Z,15.63
2022-12-31T11:20:03.727Z,15.65
2022-12-31T11:22:44.566Z,15.66
2022-12-31T11:25:23.911Z,15.67
2022-12-31T11:28:04.316Z,15.71
2022-12-31T11:30:45.684Z,15.75
2022-12-31T11:33:30.498Z,15.80
2022-12-31T11:36:13.577Z,15.83
2022-12-31T11:38:51.837Z,15.85
2022-12-31T11:41:29.693Z,15.85
2022-12-31T11:44:03.767Z,15.82
2022-12-31T11:46:44.662Z,15.81
2022-12-31T11:49:30.602Z,15.79
2022-12-31T11:52:25.989Z,15.73
2022-12-31T11:55:16.741Z,15.71
2022-12-31T11:57:49.744Z,15.69
2022-12-31T12:00:20.539Z,15.68
2022-12-31T12:02:49.896Z,15.65
2022-12-31T12:05:21.151Z,15.66
2022-12-31T12:07:48.855Z,15.66
2022-12-31T12:10:27.879Z,15.70
2022-12-31T12:13:00.248Z,15.77
2022-12-31T12:15:32.788Z,15.86
2022-12-31T12:18:07.164Z,15.92
2022-12-31T12:20:37.521Z,15.97
2022-12-31T12:23:15.333Z,16.06
2022-12-31T12:25:45.756Z,16.07
2022-12-31T12:28:21.761Z,16.14
2022-12-31T12:30:55.670Z,16.16
2022-12-31T12:33:23.669Z,16.16
2022-12-31T12:35:51.699Z,16.13
2022-12-31T12:38:21.340Z,16.15
2022-12-31T12:40:58.384Z,16.16
2022-12-31T12:43:28.054Z,16.17
2022-12-31T12:46:00.238Z,16.19
2022-12-31T12:48:35.632Z,16.21
2022-12-31T12:51:11.242Z,16.21
2022-12-31T12:53:49.863Z,16.19
2022-12-31T12:56:30.571Z,16.17
2022-12-31T12:59:20.339Z,16.16
2022-12-31T13:01:56.928Z,16.14
2022-12-31T13:04:41.717Z,16.13
2022-12-31T13:07:25.791Z,16.13
2022-12-31T13:10:10.867Z,16.14
2022-12-31T13:13:22.728Z,16.18
2022-12-31T13:15:42.664Z,16.22
2022-12-31T13:18:22.974Z,16.23
2022-12-31T13:20:56.866Z,16.21
2022-12-31T13:23:39.319Z,16.21
2022-12-31T13:26:15.547Z,16.18
2022-12-31T13:28:47.924Z,16.19
2022-12-31T13:31:18.699Z,16.18
2022-12-31T13:33:51.876Z,16.19
2022-12-31T13:36:22.997Z,16.19
2022-12-31T13:38:53.009Z,16.22
2022-12-31T13:41:25.930Z,16.24
2022-12-31T13:44:01.939Z,16.24
2022-12-31T13:46:39.795Z,16.25
2022-12-31T13:49:16.634Z,16.25
2022-12-31T13:51:48.107Z,16.24
2022-12-31T13:54:31.928Z,16.25
2022-12-31T13:57:05.588Z,16.22
2022-12-31T13:59:39.205Z,16.20
2022-12-31T14:02:26.483Z,16.19
2022-12-31T14:05:00.157Z,16.19
2022-12-31T14:07:38.927Z,16.18
2022-12-31T14:10:14.232Z,16.16
2022-12-31T14:12:53.207Z,16.13
2022-12-31T14:15:27.020Z,16.11
2022-12-31T14:18:04.466Z,16.10
2022-12-31T14:20:42.995Z,16.07
2022-12-31T14:23:21.050Z,16.05
2022-12-31T14:25:52.400Z,16.01
2022-12-31T14:28:25.152Z,15.99
2022-12-31T14:30:59.773Z,15.98
2022-12-31T14:33:46.254Z,15.95
2022-12-31T14:36:25.521Z,15.92
2022-12-31T14:39:06.272Z,15.91
2022-12-31T14:41:45.963Z,15.88
2022-12-31T14:44:29.304Z,15.89
2022-12-31T14:47:12.317Z,15.92
2022-12-31T14:49:50.605Z,15.92
2022-12-31T14:52:25.172Z,15.92
2022-12-31T14:55:01.482Z,15.92
2022-12-31T14:58:01.442Z,15.91
2022-12-31T15:00:28.598Z,15.94
2022-12-31T15:03:00.447Z,15.94
2022-12-31T15:05:29.905Z,15.93
2022-12-31T15:08:12.800Z,15.91
2022-12-31T15:10:49.153Z,15.88
2022-12-31T15:13:28.997Z,15.88
2022-12-31T15:16:12.165Z,15.89
2022-12-31T15:18:58.851Z,15.91
2022-12-31T15:21:41.236Z,15.89
2022-12-31T15:24:20.121Z,15.88
2022-12-31T15:26:51.353Z,15.87
2022-12-31T15:29:27.174Z,15.87
2022-12-31T15:31:56.274Z,15.85
2022-12-31T15:34:32.875Z,15.84
2022-12-31T15:37:02.441Z,15.81
2022-12-31T15:39:42.167Z,15.78
2022-12-31T15:42:38.737Z,15.73
2022-12-31T15:45:12.697Z,15.67
2022-12-31T15:47:44.031Z,15.60
2022-12-31T15:50:18.033Z,15.52
2022-12-31T15:52:49.831Z,15.46
2022-12-31T15:55:26.256Z,15.40
2022-12-31T15:58:00.237Z,15.34
2022-12-31T16:00:38.296Z,15.31
2022-12-31T16:03:11.539Z,15.31
2022-12-31T16:05:40.521Z,15.29
2022-12-31T16:08:08.153Z,15.25
2022-12-31T16:10:36.226Z,15.26
2022-12-31T16:13:06.257Z,15.24
2022-12-31T16:15:35.310Z,15.22
2022-12-31T16:18:05.492Z,15.19
2022-12-31T16:20:35.564Z,15.16
2022-12-31T16:23:20.967Z,15.12
2022-12-31T16:25:49.247Z,15.08
2022-12-31T16:28:20.038Z,15.05
2022-12-31T16:31:03.548Z,15.01
2022-12-31T16:33:31.749Z,14.98
2022-12-31T16:36:01.637Z,14.93
2022-12-31T16:38:35.357Z,14.87
2022-12-31T16:41:17.811Z,14.83
2022-12-31T16:43:46.742Z,14.80
2022-12-31T16:46:19.294Z,14.76
2022-12-31T16:48:49.518Z,14.73
2022-12-31T16:51:21.006Z,14.72
2022-12-31T16:53:50.486Z,14.69
2022-12-31T16:56:25.268Z,14.63
2022-12-31T16:59:00.506Z,14.57
2022-12-31T17:01:31.017Z,14.53
2022-12-31T17:04:01.189Z,14.53
2022-12-31T17:06:32.174Z,14.51
2022-12-31T17:09:14.961Z,14.48
2022-12-31T17:11:50.425Z,14.47
2022-12-31T17:14:20.400Z,14.46
2022-12-31T17:17:03.288Z,14.43
2022-12-31T17:19:39.733Z,14.41
2022-12-31T17:22:14.153Z,14.42
2022-12-31T17:24:43.135Z,14.41
2022-12-31T17:27:11.273Z,14.39
2022-12-31T17:29:39.038Z,14.38
2022-12-31T17:32:07.899Z,14.34
2022-12-31T17:34:40.083Z,14.34
2022-12-31T17:37:24.443Z,14.31
2022-12-31T17:39:54.617Z,14.31
2022-12-31T17:42:28.222Z,14.29
2022-12-31T17:44:59.839Z,14.26
2022-12-31T17:47:34.540Z,14.24
2022-12-31T17:50:07.161Z,14.17
2022-12-31T17:52:34.730Z,14.11
2022-12-31T17:55:03.800Z,14.09
2022-12-31T17:57:31.422Z,14.07
2022-12-31T17:59:58.966Z,14.05
2022-12-31T18:02:26.555Z,14.04
2022-12-31T18:04:54.200Z,14.00
2022-12-31T18:07:21.755Z,13.97
2022-12-31T18:09:49.318Z,13.95
2022-12-31T18:12:18.964Z,13.93
2022-12-31T18:14:46.649Z,13.91
2022-12-31T18:17:16.805Z,13.87
2022-12-31T18:22:32.070Z,13.78
2022-12-31T18:24:59.601Z,13.75
2022-12-31T18:27:30.577Z,13.73
2022-12-31T18:30:04.444Z,13.70
2022-12-31T18:32:33.845Z,13.65
2022-12-31T18:35:01.994Z,13.66
2022-12-31T18:37:30.176Z,13.63
2022-12-31T18:39:57.793Z,13.63
2022-12-31T18:42:29.277Z,13.59
2022-12-31T18:44:56.932Z,13.56
2022-12-31T18:47:24.515Z,13.55
2022-12-31T18:49:52.316Z,13.53
2022-12-31T18:52:22.251Z,13.50
2022-12-31T18:54:50.272Z,13.49
2022-12-31T18:57:17.942Z,13.46
2022-12-31T18:59:46.896Z,13.45
2022-12-31T19:02:17.288Z,13.44
2022-12-31T19:04:44.876Z,13.44
2022-12-31T19:07:12.585Z,13.44
2022-12-31T19:09:49.086Z,13.44
2022-12-31T19:12:19.095Z,13.42
2022-12-31T19:14:48.043Z,13.41
2022-12-31T19:17:15.639Z,13.43
2022-12-31T19:19:43.153Z,13.44
2022-12-31T19:22:15.724Z,13.45
2022-12-31T19:24:43.283Z,13.44
2022-12-31T19:27:11.138Z,13.47
2022-12-31T19:29:38.759Z,13.44
2022-12-31T19:32:08.035Z,13.43
2022-12-31T19:34:35.645Z,13.43
2022-12-31T19:37:03.212Z,13.44
2022-12-31T19:39:30.830Z,13.43
2022-12-31T19:41:59.440Z,13.42
2022-12-31T19:44:27.756Z,13.43
2022-12-31T19:46:55.339Z,13.40
2022-12-31T19:49:24.361Z,13.38
2022-12-31T19:51:52.074Z,13.35
2022-12-31T19:54:19.614Z,13.33
2022-12-31T19:56:47.213Z,13.30
2022-12-31T19:59:14.766Z,13.27
2022-12-31T20:01:42.461Z,13.24
2022-12-31T20:04:10.042Z,13.22
2022-12-31T20:06:38.968Z,13.22
2022-12-31T20:09:06.711Z,13.20
2022-12-31T20:11:34.535Z,13.18
2022-12-31T20:14:02.124Z,13.15
2022-12-31T20:16:31.729Z,13.13
2022-12-31T20:18:59.491Z,13.11
2022-12-31T20:21:28.878Z,13.10
2022-12-31T20:23:58.595Z,13.12
2022-12-31T20:26:26.736Z,13.10
2022-12-31T20:28:54.575Z,13.10
2022-12-31T20:31:24.695Z,13.09
2022-12-31T20:33:54.025Z,13.11
2022-12-31T20:36:21.890Z,13.12
2022-12-31T20:38:49.964Z,13.12
2022-12-31T20:41:20.537Z,13.15
2022-12-31T20:43:49.576Z,13.19
2022-12-31T20:46:19.445Z,13.19
2022-12-31T20:48:48.924Z,13.20
2022-12-31T20:51:17.980Z,13.21
2022-12-31T20:53:48.195Z,13.19
2022-12-31T20:56:15.871Z,13.17
2022-12-31T20:58:45.130Z,13.16
2022-12-31T21:01:13.393Z,13.12
2022-12-31T21:06:31.345Z,13.01
2022-12-31T21:09:00.895Z,12.97
2022-12-31T21:11:46.146Z,12.94
2022-12-31T21:14:15.799Z,12.88
2022-12-31T21:16:43.448Z,12.85
2022-12-31T21:19:10.991Z,12.82
2022-12-31T21:21:39.023Z,12.81
2022-12-31T21:24:07.125Z,12.80
2022-12-31T21:26:35.342Z,12.81
2022-12-31T21:29:03.513Z,12.84
2022-12-31T21:31:32.464Z,12.86
2022-12-31T21:34:00.042Z,12.85
2022-12-31T21:36:27.563Z,12.87
2022-12-31T21:38:55.085Z,12.88
2022-12-31T21:41:40.226Z,12.88
2022-12-31T21:44:07.770Z,12.89
2022-12-31T21:46:36.724Z,12.89
2022-12-31T21:49:04.537Z,12.89
2022-12-31T21:51:32.081Z,12.88
2022-12-31T21:53:59.609Z,12.86
2022-12-31T21:56:26.174Z,12.84
2022-12-31T21:59:09.273Z,12.82
2022-12-31T22:01:55.739Z,12.82
2022-12-31T22:05:00.272Z,12.81
2022-12-31T22:07:10.854Z,12.80
2022-12-31T22:09:38.394Z,12.79
2022-12-31T22:12:06.823Z,12.78
2022-12-31T22:14:34.354Z,12.73
2022-12-31T22:17:03.217Z,12.71
2022-12-31T22:19:30.729Z,12.69
2022-12-31T22:21:58.233Z,12.68
2022-12-31T22:24:25.761Z,12.65
2022-12-31T22:26:55.611Z,12.64
2022-12-31T22:29:23.588Z,12.62
2022-12-31T22:31:51.094Z,12.61
2022-12-31T22:34:19.918Z,12.60
2022-12-31T22:36:47.439Z,12.60
2022-12-31T22:39:43.242Z,12.61
2022-12-31T22:42:03.851Z,12.64
2022-12-31T22:44:31.510Z,12.67
2022-12-31T22:46:59.219Z,12.71
2022-12-31T22:49:28.072Z,12.70
2022-12-31T22:51:59.913Z,12.72
2022-12-31T22:54:30.498Z,12.72
2022-12-31T22:56:58.017Z,12.73
2022-12-31T22:59:25.490Z,12.75
2022-12-31T23:01:52.986Z,12.73
2022-12-31T23:04:20.503Z,12.72
2022-12-31T23:06:49.505Z,12.77
2022-12-31T23:09:36.181Z,12.75
2022-12-31T23:12:04.596Z,12.75
2022-12-31T23:14:49.560Z,12.73
2022-12-31T23:17:37.226Z,12.73
2022-12-31T23:20:23.381Z,12.71
2022-12-31T23:23:08.664Z,12.72
2022-12-31T23:25:38.741Z,12.75
2022-12-31T23:28:07.290Z,12.78
2022-12-31T23:30:35.588Z,12.77
2022-12-31T23:33:03.148Z,12.76
2022-12-31T23:35:30.652Z,12.76
2022-12-31T23:37:59.540Z,12.75
2022-12-31T23:40:34.159Z,12.75
2022-12-31T23:43:03.770Z,12.77
2022-12-31T23:45:33.454Z,12.81
2022-12-31T23:48:01.846Z,12.85
2022-12-31T23:50:29.577Z,12.87
2022-12-31T23:52:57.084Z,12.90
2022-12-31T23:55:25.927Z,12.95
2022-12-31T23:57:53.471Z,12.96
